sensor_id;sensor_type;location;lat;lon;timestamp;P1;durP1;ratioP1;P2;durP2;ratioP2
60478;SDS011;46321;48.398;11.754;2022-07-24T00:01:52;13.13;;;9.82;;
60478;SDS011;46321;48.398;11.754;2022-07-24T00:04:17;14.43;;;9.93;;
60478;SDS011;46321;48.398;11.754;2022-07-24T00:06:42;13.23;;;10.13;;
60478;SDS011;46321;48.398;11.754;2022-07-24T00:09:08;13.80;;;10.18;;
60478;SDS011;46321;48.398;11.754;2022-07-24T00:11:33;15.57;;;10.73;;
60478;SDS011;46321;48.398;11.754;2022-07-24T00:13:59;13.50;;;9.82;;
60478;SDS011;46321;48.398;11.754;2022-07-24T00:16:24;12.38;;;9.73;;
60478;SDS011;46321;48.398;11.754;2022-07-24T00:18:50;11.88;;;9.50;;
60478;SDS011;46321;48.398;11.754;2022-07-24T00:21:15;13.45;;;10.05;;
60478;SDS011;46321;48.398;11.754;2022-07-24T00:23:40;13.80;;;10.25;;
60478;SDS011;46321;48.398;11.754;2022-07-24T00:26:08;13.85;;;10.02;;
60478;SDS011;46321;48.398;11.754;2022-07-24T00:28:34;14.80;;;9.98;;
60478;SDS011;46321;48.398;11.754;2022-07-24T00:30:59;12.50;;;9.65;;
60478;SDS011;46321;48.398;11.754;2022-07-24T00:33:24;14.52;;;9.43;;
60478;SDS011;46321;48.398;11.754;2022-07-24T00:35:49;13.40;;;9.93;;
60478;SDS011;46321;48.398;11.754;2022-07-24T00:38:15;14.68;;;10.32;;
60478;SDS011;46321;48.398;11.754;2022-07-24T00:40:40;16.48;;;10.00;;
60478;SDS011;46321;48.398;11.754;2022-07-24T00:43:06;12.90;;;9.57;;
60478;SDS011;46321;48.398;11.754;2022-07-24T00:45:31;16.48;;;11.15;;
60478;SDS011;46321;48.398;11.754;2022-07-24T00:47:56;15.60;;;10.98;;
60478;SDS011;46321;48.398;11.754;2022-07-24T00:50:22;14.02;;;10.48;;
60478;SDS011;46321;48.398;11.754;2022-07-24T00:52:47;14.13;;;10.55;;
60478;SDS011;46321;48.398;11.754;2022-07-24T00:55:13;15.35;;;10.77;;
60478;SDS011;46321;48.398;11.754;2022-07-24T00:57:40;15.35;;;11.27;;
60478;SDS011;46321;48.398;11.754;2022-07-24T01:00:09;14.15;;;10.45;;
60478;SDS011;46321;48.398;11.754;2022-07-24T01:02:35;13.88;;;10.05;;
60478;SDS011;46321;48.398;11.754;2022-07-24T01:05:04;16.80;;;11.38;;
60478;SDS011;46321;48.398;11.754;2022-07-24T01:07:30;15.00;;;10.48;;
60478;SDS011;46321;48.398;11.754;2022-07-24T01:09:56;13.57;;;10.00;;
60478;SDS011;46321;48.398;11.754;2022-07-24T01:12:21;12.68;;;9.88;;
60478;SDS011;46321;48.398;11.754;2022-07-24T01:14:47;14.20;;;9.80;;
60478;SDS011;46321;48.398;11.754;2022-07-24T01:17:12;13.80;;;9.87;;
60478;SDS011;46321;48.398;11.754;2022-07-24T01:19:37;14.35;;;10.35;;
60478;SDS011;46321;48.398;11.754;2022-07-24T01:22:03;14.73;;;10.95;;
60478;SDS011;46321;48.398;11.754;2022-07-24T01:24:28;16.95;;;11.02;;
60478;SDS011;46321;48.398;11.754;2022-07-24T01:26:54;14.32;;;10.75;;
60478;SDS011;46321;48.398;11.754;2022-07-24T01:29:19;15.70;;;12.02;;
60478;SDS011;46321;48.398;11.754;2022-07-24T01:31:45;15.30;;;10.63;;
60478;SDS011;46321;48.398;11.754;2022-07-24T01:34:10;16.13;;;11.35;;
60478;SDS011;46321;48.398;11.754;2022-07-24T01:36:35;15.18;;;10.45;;
60478;SDS011;46321;48.398;11.754;2022-07-24T01:39:01;17.23;;;11.10;;
60478;SDS011;46321;48.398;11.754;2022-07-24T01:41:27;17.20;;;10.90;;
60478;SDS011;46321;48.398;11.754;2022-07-24T01:43:52;14.97;;;10.80;;
60478;SDS011;46321;48.398;11.754;2022-07-24T01:46:17;14.80;;;10.50;;
60478;SDS011;46321;48.398;11.754;2022-07-24T01:48:42;16.70;;;10.50;;
60478;SDS011;46321;48.398;11.754;2022-07-24T01:51:08;14.65;;;10.65;;
60478;SDS011;46321;48.398;11.754;2022-07-24T01:53:34;16.20;;;10.50;;
60478;SDS011;46321;48.398;11.754;2022-07-24T01:55:59;15.52;;;10.68;;
60478;SDS011;46321;48.398;11.754;2022-07-24T01:58:24;13.57;;;10.23;;
60478;SDS011;46321;48.398;11.754;2022-07-24T02:00:50;14.20;;;10.13;;
60478;SDS011;46321;48.398;11.754;2022-07-24T02:03:15;28.20;;;16.85;;
60478;SDS011;46321;48.398;11.754;2022-07-24T02:05:41;20.35;;;14.43;;
60478;SDS011;46321;48.398;11.754;2022-07-24T02:08:06;30.30;;;19.07;;
60478;SDS011;46321;48.398;11.754;2022-07-24T02:10:31;15.55;;;10.77;;
60478;SDS011;46321;48.398;11.754;2022-07-24T02:12:57;14.40;;;10.68;;
60478;SDS011;46321;48.398;11.754;2022-07-24T02:15:23;17.42;;;10.45;;
60478;SDS011;46321;48.398;11.754;2022-07-24T02:17:49;17.38;;;9.95;;
60478;SDS011;46321;48.398;11.754;2022-07-24T02:20:16;14.13;;;10.30;;
60478;SDS011;46321;48.398;11.754;2022-07-24T02:22:42;12.48;;;9.65;;
60478;SDS011;46321;48.398;11.754;2022-07-24T02:25:08;14.77;;;10.13;;
60478;SDS011;46321;48.398;11.754;2022-07-24T02:27:34;14.80;;;10.52;;
60478;SDS011;46321;48.398;11.754;2022-07-24T02:29:59;13.70;;;9.50;;
60478;SDS011;46321;48.398;11.754;2022-07-24T02:32:24;17.67;;;10.10;;
60478;SDS011;46321;48.398;11.754;2022-07-24T02:34:50;18.25;;;9.90;;
60478;SDS011;46321;48.398;11.754;2022-07-24T02:37:16;15.52;;;10.20;;
60478;SDS011;46321;48.398;11.754;2022-07-24T02:39:41;14.13;;;9.63;;
60478;SDS011;46321;48.398;11.754;2022-07-24T02:42:06;13.07;;;9.30;;
60478;SDS011;46321;48.398;11.754;2022-07-24T02:44:31;13.68;;;9.75;;
60478;SDS011;46321;48.398;11.754;2022-07-24T02:46:57;13.80;;;9.80;;
60478;SDS011;46321;48.398;11.754;2022-07-24T02:49:22;13.57;;;8.93;;
60478;SDS011;46321;48.398;11.754;2022-07-24T02:51:48;13.63;;;9.73;;
60478;SDS011;46321;48.398;11.754;2022-07-24T02:54:13;11.40;;;8.87;;
60478;SDS011;46321;48.398;11.754;2022-07-24T02:56:38;13.27;;;9.65;;
60478;SDS011;46321;48.398;11.754;2022-07-24T02:59:03;11.70;;;9.13;;
60478;SDS011;46321;48.398;11.754;2022-07-24T03:01:29;13.57;;;9.27;;
60478;SDS011;46321;48.398;11.754;2022-07-24T03:03:54;16.70;;;9.50;;
60478;SDS011;46321;48.398;11.754;2022-07-24T03:06:19;13.57;;;9.17;;
60478;SDS011;46321;48.398;11.754;2022-07-24T03:08:45;13.02;;;9.10;;
60478;SDS011;46321;48.398;11.754;2022-07-24T03:11:10;14.57;;;9.20;;
60478;SDS011;46321;48.398;11.754;2022-07-24T03:13:35;11.93;;;8.73;;
60478;SDS011;46321;48.398;11.754;2022-07-24T03:16:00;14.57;;;9.65;;
60478;SDS011;46321;48.398;11.754;2022-07-24T03:18:26;12.80;;;9.03;;
60478;SDS011;46321;48.398;11.754;2022-07-24T03:20:51;15.97;;;8.97;;
60478;SDS011;46321;48.398;11.754;2022-07-24T03:23:16;12.40;;;8.90;;
60478;SDS011;46321;48.398;11.754;2022-07-24T03:25:42;12.20;;;9.13;;
60478;SDS011;46321;48.398;11.754;2022-07-24T03:28:07;14.55;;;8.70;;
60478;SDS011;46321;48.398;11.754;2022-07-24T03:30:33;12.60;;;9.00;;
60478;SDS011;46321;48.398;11.754;2022-07-24T03:35:26;12.50;;;9.50;;
60478;SDS011;46321;48.398;11.754;2022-07-24T03:37:51;13.17;;;9.27;;
60478;SDS011;46321;48.398;11.754;2022-07-24T03:40:16;16.30;;;9.02;;
60478;SDS011;46321;48.398;11.754;2022-07-24T03:42:42;16.00;;;8.80;;
60478;SDS011;46321;48.398;11.754;2022-07-24T03:45:07;14.32;;;9.13;;
60478;SDS011;46321;48.398;11.754;2022-07-24T03:47:33;15.57;;;9.52;;
60478;SDS011;46321;48.398;11.754;2022-07-24T03:49:58;13.27;;;8.68;;
60478;SDS011;46321;48.398;11.754;2022-07-24T03:52:24;12.75;;;9.00;;
60478;SDS011;46321;48.398;11.754;2022-07-24T03:54:50;12.80;;;9.15;;
60478;SDS011;46321;48.398;11.754;2022-07-24T03:57:16;14.60;;;9.70;;
60478;SDS011;46321;48.398;11.754;2022-07-24T03:59:42;15.90;;;9.45;;
60478;SDS011;46321;48.398;11.754;2022-07-24T04:02:07;14.27;;;9.25;;
60478;SDS011;46321;48.398;11.754;2022-07-24T04:04:32;13.50;;;9.03;;
60478;SDS011;46321;48.398;11.754;2022-07-24T04:06:57;10.93;;;8.63;;
60478;SDS011;46321;48.398;11.754;2022-07-24T04:09:23;14.47;;;10.00;;
60478;SDS011;46321;48.398;11.754;2022-07-24T04:11:48;13.40;;;9.95;;
60478;SDS011;46321;48.398;11.754;2022-07-24T04:14:13;15.93;;;10.17;;
60478;SDS011;46321;48.398;11.754;2022-07-24T04:16:38;15.20;;;10.57;;
60478;SDS011;46321;48.398;11.754;2022-07-24T04:19:04;15.20;;;10.63;;
60478;SDS011;46321;48.398;11.754;2022-07-24T04:21:29;15.23;;;10.27;;
60478;SDS011;46321;48.398;11.754;2022-07-24T04:23:55;13.73;;;9.68;;
60478;SDS011;46321;48.398;11.754;2022-07-24T04:26:20;12.95;;;9.70;;
60478;SDS011;46321;48.398;11.754;2022-07-24T04:28:45;15.03;;;10.07;;
60478;SDS011;46321;48.398;11.754;2022-07-24T04:31:10;15.45;;;10.48;;
60478;SDS011;46321;48.398;11.754;2022-07-24T04:33:36;14.37;;;10.13;;
60478;SDS011;46321;48.398;11.754;2022-07-24T04:36:02;15.35;;;10.80;;
60478;SDS011;46321;48.398;11.754;2022-07-24T04:38:29;15.93;;;10.63;;
60478;SDS011;46321;48.398;11.754;2022-07-24T04:40:54;17.08;;;10.85;;
60478;SDS011;46321;48.398;11.754;2022-07-24T04:43:19;13.20;;;9.70;;
60478;SDS011;46321;48.398;11.754;2022-07-24T04:45:45;14.07;;;10.40;;
60478;SDS011;46321;48.398;11.754;2022-07-24T04:48:10;15.77;;;10.70;;
60478;SDS011;46321;48.398;11.754;2022-07-24T04:50:35;15.83;;;10.77;;
60478;SDS011;46321;48.398;11.754;2022-07-24T04:53:01;15.40;;;11.25;;
60478;SDS011;46321;48.398;11.754;2022-07-24T04:55:26;14.30;;;9.93;;
60478;SDS011;46321;48.398;11.754;2022-07-24T04:57:51;14.43;;;10.00;;
60478;SDS011;46321;48.398;11.754;2022-07-24T05:00:17;13.00;;;9.53;;
60478;SDS011;46321;48.398;11.754;2022-07-24T05:02:42;14.77;;;9.98;;
60478;SDS011;46321;48.398;11.754;2022-07-24T05:05:08;15.05;;;9.93;;
60478;SDS011;46321;48.398;11.754;2022-07-24T05:07:33;13.93;;;10.15;;
60478;SDS011;46321;48.398;11.754;2022-07-24T05:09:58;14.27;;;10.68;;
60478;SDS011;46321;48.398;11.754;2022-07-24T05:12:24;17.33;;;10.47;;
60478;SDS011;46321;48.398;11.754;2022-07-24T05:14:50;15.27;;;10.80;;
60478;SDS011;46321;48.398;11.754;2022-07-24T05:17:15;15.07;;;10.27;;
60478;SDS011;46321;48.398;11.754;2022-07-24T05:19:41;13.15;;;9.73;;
60478;SDS011;46321;48.398;11.754;2022-07-24T05:22:06;15.20;;;10.65;;
60478;SDS011;46321;48.398;11.754;2022-07-24T05:24:31;15.38;;;10.70;;
60478;SDS011;46321;48.398;11.754;2022-07-24T05:26:57;16.75;;;10.60;;
60478;SDS011;46321;48.398;11.754;2022-07-24T05:29:22;15.23;;;9.48;;
60478;SDS011;46321;48.398;11.754;2022-07-24T05:31:47;14.13;;;10.03;;
60478;SDS011;46321;48.398;11.754;2022-07-24T05:34:14;14.20;;;10.02;;
60478;SDS011;46321;48.398;11.754;2022-07-24T05:36:39;18.77;;;11.45;;
60478;SDS011;46321;48.398;11.754;2022-07-24T05:39:04;16.65;;;10.68;;
60478;SDS011;46321;48.398;11.754;2022-07-24T05:41:30;16.30;;;10.73;;
60478;SDS011;46321;48.398;11.754;2022-07-24T05:43:55;14.63;;;10.20;;
60478;SDS011;46321;48.398;11.754;2022-07-24T05:46:21;15.32;;;10.63;;
60478;SDS011;46321;48.398;11.754;2022-07-24T05:48:46;16.25;;;10.20;;
60478;SDS011;46321;48.398;11.754;2022-07-24T05:51:11;22.60;;;16.20;;
60478;SDS011;46321;48.398;11.754;2022-07-24T05:53:37;26.30;;;16.08;;
60478;SDS011;46321;48.398;11.754;2022-07-24T05:56:03;18.75;;;13.43;;
60478;SDS011;46321;48.398;11.754;2022-07-24T05:58:29;18.05;;;11.05;;
60478;SDS011;46321;48.398;11.754;2022-07-24T06:00:54;15.38;;;10.77;;
60478;SDS011;46321;48.398;11.754;2022-07-24T06:03:20;17.52;;;11.07;;
60478;SDS011;46321;48.398;11.754;2022-07-24T06:05:45;14.75;;;10.63;;
60478;SDS011;46321;48.398;11.754;2022-07-24T06:08:10;15.43;;;10.57;;
60478;SDS011;46321;48.398;11.754;2022-07-24T06:10:36;16.10;;;10.50;;
60478;SDS011;46321;48.398;11.754;2022-07-24T06:13:01;16.52;;;10.75;;
60478;SDS011;46321;48.398;11.754;2022-07-24T06:15:27;16.42;;;11.00;;
60478;SDS011;46321;48.398;11.754;2022-07-24T06:17:52;14.73;;;10.60;;
60478;SDS011;46321;48.398;11.754;2022-07-24T06:20:18;14.15;;;10.80;;
60478;SDS011;46321;48.398;11.754;2022-07-24T06:22:43;13.48;;;9.95;;
60478;SDS011;46321;48.398;11.754;2022-07-24T06:25:10;13.75;;;10.00;;
60478;SDS011;46321;48.398;11.754;2022-07-24T06:27:42;15.40;;;9.90;;
60478;SDS011;46321;48.398;11.754;2022-07-24T06:30:15;16.55;;;10.57;;
60478;SDS011;46321;48.398;11.754;2022-07-24T06:32:48;17.00;;;11.57;;
60478;SDS011;46321;48.398;11.754;2022-07-24T06:35:15;14.65;;;10.07;;
60478;SDS011;46321;48.398;11.754;2022-07-24T06:37:40;15.77;;;10.98;;
60478;SDS011;46321;48.398;11.754;2022-07-24T06:40:07;18.98;;;11.30;;
60478;SDS011;46321;48.398;11.754;2022-07-24T06:42:33;13.23;;;10.27;;
60478;SDS011;46321;48.398;11.754;2022-07-24T06:44:58;14.77;;;10.38;;
60478;SDS011;46321;48.398;11.754;2022-07-24T06:47:24;13.80;;;10.07;;
60478;SDS011;46321;48.398;11.754;2022-07-24T06:49:51;13.30;;;10.13;;
60478;SDS011;46321;48.398;11.754;2022-07-24T06:52:16;20.25;;;12.65;;
60478;SDS011;46321;48.398;11.754;2022-07-24T06:54:41;19.07;;;13.80;;
60478;SDS011;46321;48.398;11.754;2022-07-24T06:57:07;14.93;;;11.32;;
60478;SDS011;46321;48.398;11.754;2022-07-24T06:59:32;14.37;;;10.27;;
60478;SDS011;46321;48.398;11.754;2022-07-24T07:01:57;13.73;;;9.53;;
60478;SDS011;46321;48.398;11.754;2022-07-24T07:04:23;15.60;;;10.50;;
60478;SDS011;46321;48.398;11.754;2022-07-24T07:06:48;13.10;;;10.00;;
60478;SDS011;46321;48.398;11.754;2022-07-24T07:09:13;18.92;;;10.80;;
60478;SDS011;46321;48.398;11.754;2022-07-24T07:11:39;11.70;;;9.60;;
60478;SDS011;46321;48.398;11.754;2022-07-24T07:14:04;14.98;;;10.65;;
60478;SDS011;46321;48.398;11.754;2022-07-24T07:16:29;14.77;;;9.90;;
60478;SDS011;46321;48.398;11.754;2022-07-24T07:18:55;13.67;;;10.00;;
60478;SDS011;46321;48.398;11.754;2022-07-24T07:21:20;12.60;;;9.60;;
60478;SDS011;46321;48.398;11.754;2022-07-24T07:23:45;14.87;;;10.33;;
60478;SDS011;46321;48.398;11.754;2022-07-24T07:26:11;15.93;;;8.90;;
60478;SDS011;46321;48.398;11.754;2022-07-24T07:28:36;16.38;;;10.02;;
60478;SDS011;46321;48.398;11.754;2022-07-24T07:31:01;13.60;;;10.03;;
60478;SDS011;46321;48.398;11.754;2022-07-24T07:33:27;12.83;;;9.83;;
60478;SDS011;46321;48.398;11.754;2022-07-24T07:35:53;14.20;;;9.45;;
60478;SDS011;46321;48.398;11.754;2022-07-24T07:38:18;12.32;;;9.70;;
60478;SDS011;46321;48.398;11.754;2022-07-24T07:40:43;14.15;;;9.10;;
60478;SDS011;46321;48.398;11.754;2022-07-24T07:43:09;14.15;;;9.68;;
60478;SDS011;46321;48.398;11.754;2022-07-24T07:45:34;13.13;;;9.85;;
60478;SDS011;46321;48.398;11.754;2022-07-24T07:48:00;13.05;;;9.23;;
60478;SDS011;46321;48.398;11.754;2022-07-24T07:50:25;13.87;;;9.30;;
60478;SDS011;46321;48.398;11.754;2022-07-24T07:52:50;12.32;;;8.68;;
60478;SDS011;46321;48.398;11.754;2022-07-24T07:55:16;14.17;;;9.53;;
60478;SDS011;46321;48.398;11.754;2022-07-24T07:57:41;16.60;;;9.10;;
60478;SDS011;46321;48.398;11.754;2022-07-24T08:00:08;10.85;;;8.80;;
60478;SDS011;46321;48.398;11.754;2022-07-24T08:02:34;11.82;;;8.43;;
60478;SDS011;46321;48.398;11.754;2022-07-24T08:05:00;12.10;;;8.50;;
60478;SDS011;46321;48.398;11.754;2022-07-24T08:07:25;10.70;;;8.55;;
60478;SDS011;46321;48.398;11.754;2022-07-24T08:09:50;9.07;;;7.70;;
60478;SDS011;46321;48.398;11.754;2022-07-24T08:12:15;10.43;;;8.15;;
60478;SDS011;46321;48.398;11.754;2022-07-24T08:14:41;11.43;;;8.60;;
60478;SDS011;46321;48.398;11.754;2022-07-24T08:17:06;11.52;;;8.68;;
60478;SDS011;46321;48.398;11.754;2022-07-24T08:19:31;13.90;;;8.30;;
60478;SDS011;46321;48.398;11.754;2022-07-24T08:21:57;11.23;;;7.95;;
60478;SDS011;46321;48.398;11.754;2022-07-24T08:24:22;8.40;;;7.20;;
60478;SDS011;46321;48.398;11.754;2022-07-24T08:26:48;12.18;;;7.40;;
60478;SDS011;46321;48.398;11.754;2022-07-24T08:29:14;14.23;;;9.63;;
60478;SDS011;46321;48.398;11.754;2022-07-24T08:31:39;11.02;;;8.77;;
60478;SDS011;46321;48.398;11.754;2022-07-24T08:34:05;11.98;;;8.23;;
60478;SDS011;46321;48.398;11.754;2022-07-24T08:36:30;7.93;;;7.03;;
60478;SDS011;46321;48.398;11.754;2022-07-24T08:38:55;10.90;;;7.40;;
60478;SDS011;46321;48.398;11.754;2022-07-24T08:41:21;12.27;;;7.28;;
60478;SDS011;46321;48.398;11.754;2022-07-24T08:43:47;11.07;;;7.35;;
60478;SDS011;46321;48.398;11.754;2022-07-24T08:46:12;8.30;;;6.78;;
60478;SDS011;46321;48.398;11.754;2022-07-24T08:48:41;8.00;;;6.88;;
60478;SDS011;46321;48.398;11.754;2022-07-24T08:51:08;7.32;;;6.47;;
60478;SDS011;46321;48.398;11.754;2022-07-24T08:53:34;9.90;;;6.53;;
60478;SDS011;46321;48.398;11.754;2022-07-24T08:55:59;8.93;;;6.83;;
60478;SDS011;46321;48.398;11.754;2022-07-24T08:58:25;7.60;;;6.53;;
60478;SDS011;46321;48.398;11.754;2022-07-24T09:00:50;8.27;;;6.32;;
60478;SDS011;46321;48.398;11.754;2022-07-24T09:03:15;8.27;;;6.77;;
60478;SDS011;46321;48.398;11.754;2022-07-24T09:06:01;7.30;;;6.60;;
60478;SDS011;46321;48.398;11.754;2022-07-24T09:08:26;7.50;;;6.10;;
60478;SDS011;46321;48.398;11.754;2022-07-24T09:10:58;8.90;;;6.27;;
60478;SDS011;46321;48.398;11.754;2022-07-24T09:13:30;7.10;;;6.40;;
60478;SDS011;46321;48.398;11.754;2022-07-24T09:16:17;8.55;;;7.32;;
60478;SDS011;46321;48.398;11.754;2022-07-24T09:18:47;8.55;;;6.47;;
60478;SDS011;46321;48.398;11.754;2022-07-24T09:21:26;8.23;;;6.78;;
60478;SDS011;46321;48.398;11.754;2022-07-24T09:23:52;9.33;;;7.07;;
60478;SDS011;46321;48.398;11.754;2022-07-24T09:26:17;8.63;;;6.50;;
60478;SDS011;46321;48.398;11.754;2022-07-24T09:28:49;7.17;;;6.10;;
60478;SDS011;46321;48.398;11.754;2022-07-24T09:31:16;8.85;;;6.82;;
60478;SDS011;46321;48.398;11.754;2022-07-24T09:33:41;7.35;;;6.25;;
60478;SDS011;46321;48.398;11.754;2022-07-24T09:36:10;6.93;;;6.17;;
60478;SDS011;46321;48.398;11.754;2022-07-24T09:38:37;7.65;;;6.40;;
60478;SDS011;46321;48.398;11.754;2022-07-24T09:41:03;6.78;;;6.10;;
60478;SDS011;46321;48.398;11.754;2022-07-24T09:43:29;8.43;;;6.60;;
60478;SDS011;46321;48.398;11.754;2022-07-24T09:46:03;10.75;;;6.25;;
60478;SDS011;46321;48.398;11.754;2022-07-24T09:48:40;8.23;;;6.60;;
60478;SDS011;46321;48.398;11.754;2022-07-24T09:51:16;8.13;;;6.55;;
60478;SDS011;46321;48.398;11.754;2022-07-24T09:53:42;7.50;;;6.20;;
60478;SDS011;46321;48.398;11.754;2022-07-24T09:56:11;7.53;;;5.95;;
60478;SDS011;46321;48.398;11.754;2022-07-24T09:58:40;7.45;;;6.30;;
60478;SDS011;46321;48.398;11.754;2022-07-24T10:01:20;7.75;;;6.95;;
60478;SDS011;46321;48.398;11.754;2022-07-24T10:03:48;8.00;;;6.50;;
60478;SDS011;46321;48.398;11.754;2022-07-24T10:06:16;8.07;;;6.75;;
60478;SDS011;46321;48.398;11.754;2022-07-24T10:08:44;6.75;;;6.10;;
60478;SDS011;46321;48.398;11.754;2022-07-24T10:11:11;8.30;;;6.43;;
60478;SDS011;46321;48.398;11.754;2022-07-24T10:13:37;8.35;;;6.32;;
60478;SDS011;46321;48.398;11.754;2022-07-24T10:21:20;7.72;;;6.38;;
60478;SDS011;46321;48.398;11.754;2022-07-24T10:26:39;6.95;;;6.25;;
60478;SDS011;46321;48.398;11.754;2022-07-24T10:29:17;9.38;;;6.28;;
60478;SDS011;46321;48.398;11.754;2022-07-24T10:31:51;12.05;;;6.70;;
60478;SDS011;46321;48.398;11.754;2022-07-24T10:37:05;8.05;;;5.97;;
60478;SDS011;46321;48.398;11.754;2022-07-24T10:42:30;7.10;;;6.10;;
60478;SDS011;46321;48.398;11.754;2022-07-24T10:47:40;7.43;;;5.80;;
60478;SDS011;46321;48.398;11.754;2022-07-24T10:50:05;7.13;;;6.07;;
60478;SDS011;46321;48.398;11.754;2022-07-24T10:52:31;7.80;;;6.35;;
60478;SDS011;46321;48.398;11.754;2022-07-24T11:00:32;7.47;;;6.15;;
60478;SDS011;46321;48.398;11.754;2022-07-24T11:03:02;7.03;;;5.90;;
60478;SDS011;46321;48.398;11.754;2022-07-24T11:05:36;7.22;;;6.07;;
60478;SDS011;46321;48.398;11.754;2022-07-24T11:10:44;6.65;;;5.93;;
60478;SDS011;46321;48.398;11.754;2022-07-24T11:18:35;9.40;;;6.43;;
60478;SDS011;46321;48.398;11.754;2022-07-24T11:21:00;8.05;;;6.20;;
60478;SDS011;46321;48.398;11.754;2022-07-24T11:23:26;7.38;;;6.35;;
60478;SDS011;46321;48.398;11.754;2022-07-24T11:26:08;7.30;;;6.30;;
60478;SDS011;46321;48.398;11.754;2022-07-24T11:31:40;7.22;;;6.38;;
60478;SDS011;46321;48.398;11.754;2022-07-24T11:34:08;7.60;;;6.65;;
60478;SDS011;46321;48.398;11.754;2022-07-24T11:36:35;7.57;;;6.78;;
60478;SDS011;46321;48.398;11.754;2022-07-24T11:39:02;8.38;;;7.07;;
60478;SDS011;46321;48.398;11.754;2022-07-24T11:41:28;9.80;;;7.22;;
60478;SDS011;46321;48.398;11.754;2022-07-24T11:43:54;8.33;;;6.47;;
60478;SDS011;46321;48.398;11.754;2022-07-24T11:46:33;7.72;;;6.53;;
60478;SDS011;46321;48.398;11.754;2022-07-24T11:49:06;7.93;;;6.90;;
60478;SDS011;46321;48.398;11.754;2022-07-24T11:54:10;7.32;;;6.57;;
60478;SDS011;46321;48.398;11.754;2022-07-24T11:56:36;6.97;;;6.28;;
60478;SDS011;46321;48.398;11.754;2022-07-24T11:59:02;9.05;;;7.15;;
60478;SDS011;46321;48.398;11.754;2022-07-24T12:01:27;7.50;;;6.78;;
60478;SDS011;46321;48.398;11.754;2022-07-24T12:03:54;11.93;;;8.18;;
60478;SDS011;46321;48.398;11.754;2022-07-24T12:06:22;14.25;;;9.07;;
60478;SDS011;46321;48.398;11.754;2022-07-24T12:08:47;9.77;;;8.10;;
60478;SDS011;46321;48.398;11.754;2022-07-24T12:11:19;9.33;;;7.20;;
60478;SDS011;46321;48.398;11.754;2022-07-24T12:13:46;8.15;;;6.70;;
60478;SDS011;46321;48.398;11.754;2022-07-24T12:16:14;8.27;;;6.55;;
60478;SDS011;46321;48.398;11.754;2022-07-24T12:18:48;7.10;;;6.38;;
60478;SDS011;46321;48.398;11.754;2022-07-24T12:21:13;7.30;;;6.05;;
60478;SDS011;46321;48.398;11.754;2022-07-24T12:23:39;9.02;;;6.50;;
60478;SDS011;46321;48.398;11.754;2022-07-24T12:26:05;7.65;;;6.65;;
60478;SDS011;46321;48.398;11.754;2022-07-24T12:28:30;7.00;;;6.07;;
60478;SDS011;46321;48.398;11.754;2022-07-24T12:30:56;7.07;;;5.95;;
60478;SDS011;46321;48.398;11.754;2022-07-24T12:33:22;7.18;;;6.38;;
60478;SDS011;46321;48.398;11.754;2022-07-24T12:38:37;10.40;;;6.90;;
60478;SDS011;46321;48.398;11.754;2022-07-24T12:43:51;7.72;;;6.68;;
60478;SDS011;46321;48.398;11.754;2022-07-24T12:46:19;9.52;;;6.70;;
60478;SDS011;46321;48.398;11.754;2022-07-24T12:51:43;7.80;;;6.57;;
60478;SDS011;46321;48.398;11.754;2022-07-24T12:54:18;8.13;;;6.85;;
60478;SDS011;46321;48.398;11.754;2022-07-24T12:56:46;7.55;;;6.65;;
60478;SDS011;46321;48.398;11.754;2022-07-24T12:59:26;8.00;;;7.20;;
60478;SDS011;46321;48.398;11.754;2022-07-24T13:02:02;7.68;;;6.47;;
60478;SDS011;46321;48.398;11.754;2022-07-24T13:04:31;6.80;;;6.07;;
60478;SDS011;46321;48.398;11.754;2022-07-24T13:06:57;7.82;;;6.60;;
60478;SDS011;46321;48.398;11.754;2022-07-24T13:09:25;6.80;;;6.15;;
60478;SDS011;46321;48.398;11.754;2022-07-24T13:11:51;8.25;;;7.03;;
60478;SDS011;46321;48.398;11.754;2022-07-24T13:14:18;7.10;;;5.95;;
60478;SDS011;46321;48.398;11.754;2022-07-24T13:16:46;7.20;;;6.47;;
60478;SDS011;46321;48.398;11.754;2022-07-24T13:19:13;7.55;;;6.65;;
60478;SDS011;46321;48.398;11.754;2022-07-24T13:21:38;7.57;;;6.32;;
60478;SDS011;46321;48.398;11.754;2022-07-24T13:24:05;8.25;;;6.30;;
60478;SDS011;46321;48.398;11.754;2022-07-24T13:26:32;6.72;;;5.95;;
60478;SDS011;46321;48.398;11.754;2022-07-24T13:28:58;7.63;;;6.38;;
60478;SDS011;46321;48.398;11.754;2022-07-24T13:31:23;7.45;;;6.65;;
60478;SDS011;46321;48.398;11.754;2022-07-24T13:33:49;6.93;;;6.22;;
60478;SDS011;46321;48.398;11.754;2022-07-24T13:36:15;9.60;;;6.72;;
60478;SDS011;46321;48.398;11.754;2022-07-24T13:38:41;8.82;;;6.68;;
60478;SDS011;46321;48.398;11.754;2022-07-24T13:41:07;10.15;;;8.60;;
60478;SDS011;46321;48.398;11.754;2022-07-24T13:43:32;9.23;;;7.53;;
60478;SDS011;46321;48.398;11.754;2022-07-24T13:45:58;7.25;;;6.53;;
60478;SDS011;46321;48.398;11.754;2022-07-24T13:48:23;7.80;;;6.43;;
60478;SDS011;46321;48.398;11.754;2022-07-24T13:50:48;8.80;;;6.78;;
60478;SDS011;46321;48.398;11.754;2022-07-24T13:53:14;8.57;;;6.32;;
60478;SDS011;46321;48.398;11.754;2022-07-24T13:55:39;9.32;;;6.30;;
60478;SDS011;46321;48.398;11.754;2022-07-24T13:58:05;10.25;;;6.63;;
60478;SDS011;46321;48.398;11.754;2022-07-24T14:00:30;9.27;;;6.60;;
60478;SDS011;46321;48.398;11.754;2022-07-24T14:02:55;9.10;;;6.40;;
60478;SDS011;46321;48.398;11.754;2022-07-24T14:05:24;7.18;;;6.22;;
60478;SDS011;46321;48.398;11.754;2022-07-24T14:07:50;7.45;;;6.22;;
60478;SDS011;46321;48.398;11.754;2022-07-24T14:10:16;7.25;;;6.55;;
60478;SDS011;46321;48.398;11.754;2022-07-24T14:12:41;7.88;;;6.75;;
60478;SDS011;46321;48.398;11.754;2022-07-24T14:15:07;7.67;;;6.60;;
60478;SDS011;46321;48.398;11.754;2022-07-24T14:17:37;9.27;;;6.18;;
60478;SDS011;46321;48.398;11.754;2022-07-24T14:20:03;7.78;;;6.72;;
60478;SDS011;46321;48.398;11.754;2022-07-24T14:22:28;9.60;;;6.32;;
60478;SDS011;46321;48.398;11.754;2022-07-24T14:24:54;8.38;;;6.20;;
60478;SDS011;46321;48.398;11.754;2022-07-24T14:27:19;7.40;;;6.50;;
60478;SDS011;46321;48.398;11.754;2022-07-24T14:29:44;7.15;;;6.47;;
60478;SDS011;46321;48.398;11.754;2022-07-24T14:32:10;9.73;;;6.73;;
60478;SDS011;46321;48.398;11.754;2022-07-24T14:34:35;6.88;;;6.18;;
60478;SDS011;46321;48.398;11.754;2022-07-24T14:37:00;8.00;;;6.57;;
60478;SDS011;46321;48.398;11.754;2022-07-24T14:39:26;8.67;;;6.97;;
60478;SDS011;46321;48.398;11.754;2022-07-24T14:41:53;8.73;;;6.50;;
60478;SDS011;46321;48.398;11.754;2022-07-24T14:44:18;8.00;;;6.18;;
60478;SDS011;46321;48.398;11.754;2022-07-24T14:46:43;7.33;;;6.60;;
60478;SDS011;46321;48.398;11.754;2022-07-24T14:49:09;8.00;;;6.30;;
60478;SDS011;46321;48.398;11.754;2022-07-24T14:51:34;7.90;;;6.60;;
60478;SDS011;46321;48.398;11.754;2022-07-24T14:54:00;7.10;;;5.53;;
60478;SDS011;46321;48.398;11.754;2022-07-24T14:56:25;7.47;;;6.07;;
60478;SDS011;46321;48.398;11.754;2022-07-24T14:58:50;7.20;;;6.30;;
60478;SDS011;46321;48.398;11.754;2022-07-24T15:01:15;7.87;;;6.50;;
60478;SDS011;46321;48.398;11.754;2022-07-24T15:03:41;9.15;;;7.72;;